Time;durP1;ratioP1;P1;durP2;ratioP2;P2;SDS_P1;SDS_P2;PMS_P1;PMS_P2;Temp;Humidity;BMP_temperature;BMP_pressure;BME280_temperature;BME280_humidity;BME280_pressure;Samples;Min_cycle;Max_cycle;Signal;HPM_P1;HPM_P2
2022/01/29 00:01:02;;;;;;;20.35;7.43;;;;;;;;;;5078787;28;20046;-72
2022/01/29 00:03:27;;;;;;;26.42;8.10;;;;;;;;;;5080377;28;20024;-71
2022/01/29 00:05:53;;;;;;;28.25;9.50;;;;;;;;;;5080242;28;20081;-69
2022/01/29 00:08:19;;;;;;;27.48;9.13;;;;;;;;;;5078961;28;20090;-70
2022/01/29 00:10:47;;;;;;;29.10;9.10;;;;;;;;;;5078939;28;20106;-69
2022/01/29 00:13:12;;;;;;;19.45;7.85;;;;;;;;;;5077282;28;20324;-72
2022/01/29 00:15:38;;;;;;;25.15;7.15;;;;;;;;;;5080454;28;20035;-71
2022/01/29 00:18:04;;;;;;;31.77;9.35;;;;;;;;;;5078796;28;20089;-73
2022/01/29 00:20:29;;;;;;;30.45;9.70;;;;;;;;;;5078957;28;20032;-70
2022/01/29 00:22:55;;;;;;;12.63;5.90;;;;;;;;;;5079154;28;20097;-73
2022/01/29 00:25:20;;;;;;;30.58;9.13;;;;;;;;;;5079747;28;20283;-70
2022/01/29 00:27:46;;;;;;;26.50;9.15;;;;;;;;;;5077087;28;20377;-71
2022/01/29 00:30:16;;;;;;;29.88;8.30;;;;;;;;;;5060092;28;20054;-70
2022/01/29 00:32:42;;;;;;;20.17;7.10;;;;;;;;;;5079351;28;20419;-70
2022/01/29 00:35:08;;;;;;;28.13;9.07;;;;;;;;;;5077806;28;20129;-72
2022/01/29 00:37:33;;;;;;;25.05;9.43;;;;;;;;;;5078300;28;20503;-70
2022/01/29 00:39:59;;;;;;;17.70;6.70;;;;;;;;;;5078686;28;20040;-71
2022/01/29 00:42:25;;;;;;;29.55;9.75;;;;;;;;;;5077837;28;20297;-72
2022/01/29 00:44:50;;;;;;;24.92;8.15;;;;;;;;;;5078465;28;20024;-73
2022/01/29 00:47:16;;;;;;;22.50;8.90;;;;;;;;;;5077577;28;20035;-72
2022/01/29 00:49:41;;;;;;;25.33;9.93;;;;;;;;;;5077511;28;20089;-73
2022/01/29 00:52:07;;;;;;;27.02;8.20;;;;;;;;;;5078189;28;20031;-73
2022/01/29 00:54:32;;;;;;;26.48;8.27;;;;;;;;;;5077083;28;20426;-72
2022/01/29 00:56:57;;;;;;;28.38;9.82;;;;;;;;;;5075449;28;20204;-72
2022/01/29 00:59:23;;;;;;;23.83;8.27;;;;;;;;;;5078660;28;20049;-71
2022/01/29 01:01:48;;;;;;;28.17;7.78;;;;;;;;;;5077230;28;20035;-70
2022/01/29 01:04:14;;;;;;;26.35;7.70;;;;;;;;;;5077721;28;20518;-72
2022/01/29 01:06:39;;;;;;;22.25;7.72;;;;;;;;;;5077772;28;20035;-70
2022/01/29 01:09:05;;;;;;;24.60;7.53;;;;;;;;;;5078263;28;20033;-73
2022/01/29 01:11:30;;;;;;;28.63;9.43;;;;;;;;;;5077001;28;20376;-71
2022/01/29 01:13:55;;;;;;;23.58;8.35;;;;;;;;;;5078124;28;20036;-72
2022/01/29 01:16:21;;;;;;;30.90;8.63;;;;;;;;;;5078671;28;20159;-72
2022/01/29 01:18:46;;;;;;;26.42;7.88;;;;;;;;;;5077940;28;20382;-69
2022/01/29 01:21:12;;;;;;;27.20;8.30;;;;;;;;;;5077613;28;20032;-70
2022/01/29 01:23:37;;;;;;;22.35;7.75;;;;;;;;;;5077726;28;20169;-72
2022/01/29 01:26:04;;;;;;;31.85;10.05;;;;;;;;;;5077713;28;20035;-70
2022/01/29 01:28:29;;;;;;;26.02;8.45;;;;;;;;;;5076337;28;20028;-70
2022/01/29 01:30:55;;;;;;;33.28;9.75;;;;;;;;;;5076594;28;20811;-72
2022/01/29 01:33:20;;;;;;;31.38;10.20;;;;;;;;;;5078631;28;20053;-72
2022/01/29 01:35:50;;;;;;;29.55;8.98;;;;;;;;;;5078339;28;20594;-70
2022/01/29 01:38:21;;;;;;;25.30;8.68;;;;;;;;;;5077137;28;20043;-73
2022/01/29 01:40:52;;;;;;;25.63;10.48;;;;;;;;;;5077580;28;20047;-71
2022/01/29 01:43:17;;;;;;;26.63;10.75;;;;;;;;;;5076023;28;20044;-73
2022/01/29 01:45:43;;;;;;;29.77;8.95;;;;;;;;;;5078042;28;20028;-73
2022/01/29 01:48:08;;;;;;;34.20;10.15;;;;;;;;;;5076678;28;20363;-73
2022/01/29 01:50:34;;;;;;;29.08;9.55;;;;;;;;;;5077652;28;20028;-70
2022/01/29 01:53:00;;;;;;;24.55;8.05;;;;;;;;;;5077413;28;20032;-73
2022/01/29 01:55:25;;;;;;;21.52;7.68;;;;;;;;;;5076357;28;20031;-73
2022/01/29 01:57:51;;;;;;;28.75;9.65;;;;;;;;;;5075758;28;20157;-71
2022/01/29 02:00:16;;;;;;;31.42;10.55;;;;;;;;;;5075847;28;20039;-73
2022/01/29 02:02:41;;;;;;;28.55;8.10;;;;;;;;;;5076999;28;20169;-70
2022/01/29 02:05:08;;;;;;;23.05;9.20;;;;;;;;;;5076984;28;20031;-71
2022/01/29 02:07:33;;;;;;;34.03;8.65;;;;;;;;;;5075955;28;20478;-73
2022/01/29 02:09:59;;;;;;;28.95;7.75;;;;;;;;;;5076458;28;20032;-70
2022/01/29 02:12:28;;;;;;;25.42;8.10;;;;;;;;;;5076132;28;20080;-71
2022/01/29 02:14:53;;;;;;;24.95;8.75;;;;;;;;;;5077432;28;20063;-70
2022/01/29 02:17:19;;;;;;;29.90;8.88;;;;;;;;;;5075720;28;20463;-71
2022/01/29 02:19:44;;;;;;;30.58;10.77;;;;;;;;;;5077350;28;20036;-70
2022/01/29 02:22:09;;;;;;;30.95;9.65;;;;;;;;;;5076261;28;20421;-71
2022/01/29 02:24:36;;;;;;;33.58;10.18;;;;;;;;;;5077377;28;20110;-72
2022/01/29 02:27:01;;;;;;;27.48;9.60;;;;;;;;;;5074611;28;20119;-70
2022/01/29 02:29:27;;;;;;;17.65;6.40;;;;;;;;;;5077611;28;20362;-72
2022/01/29 02:31:54;;;;;;;18.88;6.50;;;;;;;;;;5075899;28;20093;-73
2022/01/29 02:34:19;;;;;;;26.05;8.70;;;;;;;;;;5076693;28;20100;-71
2022/01/29 02:36:45;;;;;;;34.95;10.85;;;;;;;;;;5076395;28;20463;-72
2022/01/29 02:39:12;;;;;;;12.70;4.13;;;;;;;;;;5076430;28;20028;-71
2022/01/29 02:41:40;;;;;;;32.22;11.23;;;;;;;;;;5075654;28;20482;-72
2022/01/29 02:44:06;;;;;;;30.00;10.70;;;;;;;;;;5077034;28;20114;-72
2022/01/29 02:46:48;;;;;;;28.45;10.43;;;;;;;;;;5076503;28;20137;-71
2022/01/29 02:49:14;;;;;;;34.00;10.75;;;;;;;;;;5076943;28;20079;-72
2022/01/29 02:51:42;;;;;;;31.58;10.35;;;;;;;;;;5075439;28;20694;-72
2022/01/29 02:54:08;;;;;;;29.88;10.25;;;;;;;;;;5076387;28;20338;-70
2022/01/29 02:56:33;;;;;;;32.95;10.27;;;;;;;;;;5075368;28;20708;-73
2022/01/29 02:58:59;;;;;;;22.77;8.70;;;;;;;;;;5076466;28;20071;-71
2022/01/29 03:01:24;;;;;;;16.85;7.68;;;;;;;;;;5076297;28;20433;-72
2022/01/29 03:03:49;;;;;;;34.30;10.63;;;;;;;;;;5077167;28;20028;-71
2022/01/29 03:06:15;;;;;;;21.90;8.85;;;;;;;;;;5076263;28;20559;-71
2022/01/29 03:08:40;;;;;;;12.93;6.15;;;;;;;;;;5075493;28;20081;-70
2022/01/29 03:11:05;;;;;;;29.60;10.90;;;;;;;;;;5075921;28;20058;-71
2022/01/29 03:13:31;;;;;;;15.65;6.18;;;;;;;;;;5075303;28;20491;-71
2022/01/29 03:15:56;;;;;;;27.00;9.85;;;;;;;;;;5076474;28;20027;-72
2022/01/29 03:18:22;;;;;;;49.80;8.18;;;;;;;;;;5075656;28;20028;-72
2022/01/29 03:20:47;;;;;;;29.38;11.32;;;;;;;;;;5075919;28;20044;-72
2022/01/29 03:23:13;;;;;;;31.85;10.73;;;;;;;;;;5075655;28;20325;-70
2022/01/29 03:25:39;;;;;;;28.45;7.50;;;;;;;;;;5077411;28;20026;-71
2022/01/29 03:28:04;;;;;;;29.80;8.77;;;;;;;;;;5076135;28;20054;-73
2022/01/29 03:30:29;;;;;;;22.13;7.55;;;;;;;;;;5079191;28;20028;-71
2022/01/29 03:32:55;;;;;;;31.30;11.20;;;;;;;;;;5080688;28;20040;-72
2022/01/29 03:35:20;;;;;;;24.60;9.38;;;;;;;;;;5080488;28;20063;-73
2022/01/29 03:37:45;;;;;;;31.40;10.57;;;;;;;;;;5079308;28;20514;-70
2022/01/29 03:40:11;;;;;;;15.82;5.95;;;;;;;;;;5079859;28;20040;-72
2022/01/29 03:42:46;;;;;;;26.35;9.90;;;;;;;;;;5079076;28;20123;-72
2022/01/29 03:45:14;;;;;;;32.13;11.15;;;;;;;;;;5079527;28;20119;-70
2022/01/29 03:47:39;;;;;;;22.08;8.70;;;;;;;;;;5079135;28;20020;-73
2022/01/29 03:50:05;;;;;;;15.75;4.47;;;;;;;;;;5080239;28;20032;-73
2022/01/29 03:52:31;;;;;;;35.33;10.25;;;;;;;;;;5079777;28;20028;-71
2022/01/29 03:54:56;;;;;;;33.20;10.32;;;;;;;;;;5080003;28;20694;-73
2022/01/29 03:57:22;;;;;;;26.27;9.23;;;;;;;;;;5077898;28;20035;-72
2022/01/29 03:59:47;;;;;;;34.00;11.43;;;;;;;;;;5079808;28;20122;-70
2022/01/29 04:02:12;;;;;;;27.75;8.85;;;;;;;;;;5078039;28;20070;-72
2022/01/29 04:04:38;;;;;;;29.77;10.00;;;;;;;;;;5079883;28;20683;-70
2022/01/29 04:07:10;;;;;;;31.08;10.45;;;;;;;;;;5079277;28;20104;-70
2022/01/29 04:09:35;;;;;;;31.98;9.98;;;;;;;;;;5079386;28;20028;-70
2022/01/29 04:12:01;;;;;;;30.15;11.05;;;;;;;;;;5078257;28;20036;-70
2022/01/29 04:14:32;;;;;;;24.92;9.73;;;;;;;;;;5079682;28;20085;-70
2022/01/29 04:16:57;;;;;;;34.40;11.70;;;;;;;;;;5078032;28;20189;-71
2022/01/29 04:19:23;;;;;;;29.17;9.10;;;;;;;;;;5079470;28;20032;-73
2022/01/29 04:21:48;;;;;;;28.08;9.75;;;;;;;;;;5078673;28;20028;-71
2022/01/29 04:24:13;;;;;;;31.58;10.20;;;;;;;;;;5078402;28;20122;-71
2022/01/29 04:26:39;;;;;;;21.33;7.80;;;;;;;;;;5077191;28;20035;-72
2022/01/29 04:29:07;;;;;;;19.85;9.27;;;;;;;;;;5079862;28;20325;-70
2022/01/29 04:31:41;;;;;;;23.27;8.43;;;;;;;;;;5078034;28;20102;-72
2022/01/29 04:34:06;;;;;;;25.88;8.20;;;;;;;;;;5078937;28;20602;-70
2022/01/29 04:36:32;;;;;;;26.55;7.43;;;;;;;;;;5078223;28;20031;-70
2022/01/29 04:38:57;;;;;;;22.33;8.30;;;;;;;;;;5077794;28;20420;-73
2022/01/29 04:41:22;;;;;;;20.92;7.47;;;;;;;;;;5078157;28;20024;-72
2022/01/29 04:43:48;;;;;;;24.02;8.02;;;;;;;;;;5078649;28;20028;-72
2022/01/29 04:46:14;;;;;;;22.27;7.93;;;;;;;;;;5078370;28;20059;-72
2022/01/29 04:48:39;;;;;;;24.40;7.72;;;;;;;;;;5077962;28;20036;-72
2022/01/29 04:51:04;;;;;;;18.60;6.13;;;;;;;;;;5078116;28;20124;-71
2022/01/29 04:53:30;;;;;;;19.73;7.25;;;;;;;;;;5078869;28;20032;-72
2022/01/29 04:55:55;;;;;;;21.80;6.40;;;;;;;;;;5078137;28;20020;-71
2022/01/29 04:58:20;;;;;;;22.85;7.90;;;;;;;;;;5077385;28;20651;-70
2022/01/29 05:00:46;;;;;;;21.92;7.10;;;;;;;;;;5076826;28;20110;-72
2022/01/29 05:03:12;;;;;;;20.63;7.32;;;;;;;;;;5077760;28;20543;-73
2022/01/29 05:05:38;;;;;;;18.98;5.57;;;;;;;;;;5078441;28;20544;-73
2022/01/29 05:08:04;;;;;;;19.65;6.57;;;;;;;;;;5077667;28;20060;-71
2022/01/29 05:10:29;;;;;;;21.02;7.13;;;;;;;;;;5077849;28;20123;-71
2022/01/29 05:13:00;;;;;;;11.48;4.18;;;;;;;;;;5077248;28;20415;-72
2022/01/29 05:15:35;;;;;;;15.82;5.93;;;;;;;;;;5078769;28;20043;-71
2022/01/29 05:28:56;;;;;;;14.27;6.22;;;;;;;;;;5078118;28;20089;-70
2022/01/29 05:31:21;;;;;;;19.88;6.38;;;;;;;;;;5076918;28;20620;-70
2022/01/29 05:33:47;;;;;;;12.93;4.70;;;;;;;;;;5077482;28;20432;-73
2022/01/29 05:36:12;;;;;;;10.25;3.88;;;;;;;;;;5077577;28;20044;-70
2022/01/29 05:38:37;;;;;;;15.38;5.65;;;;;;;;;;5077350;28;20036;-73
2022/01/29 05:41:03;;;;;;;15.60;4.80;;;;;;;;;;5078029;28;20036;-70
2022/01/29 05:43:29;;;;;;;13.52;5.15;;;;;;;;;;5076077;28;20109;-71
2022/01/29 05:45:54;;;;;;;10.45;4.20;;;;;;;;;;5077784;28;20031;-70
2022/01/29 05:48:20;;;;;;;11.82;6.10;;;;;;;;;;5077367;28;20024;-70
2022/01/29 05:50:45;;;;;;;11.88;4.60;;;;;;;;;;5076710;28;20373;-70
2022/01/29 05:53:10;;;;;;;12.73;4.90;;;;;;;;;;5077431;28;20036;-69
2022/01/29 05:55:36;;;;;;;8.15;3.22;;;;;;;;;;5077919;28;20028;-70
2022/01/29 05:58:01;;;;;;;8.45;3.10;;;;;;;;;;5075514;28;20050;-70
2022/01/29 06:00:26;;;;;;;11.57;4.15;;;;;;;;;;5076887;28;20036;-72
2022/01/29 06:03:03;;;;;;;12.38;4.43;;;;;;;;;;5077790;28;20039;-72
2022/01/29 06:05:28;;;;;;;11.48;4.28;;;;;;;;;;5077173;28;20103;-72
2022/01/29 06:07:54;;;;;;;7.85;3.17;;;;;;;;;;5076613;28;20486;-72
2022/01/29 06:10:19;;;;;;;7.55;3.20;;;;;;;;;;5077275;28;20147;-73
2022/01/29 06:12:45;;;;;;;11.10;3.60;;;;;;;;;;5076873;28;20028;-72
2022/01/29 06:15:11;;;;;;;9.85;3.78;;;;;;;;;;5078174;28;20032;-71
2022/01/29 06:17:38;;;;;;;13.02;4.32;;;;;;;;;;5077240;28;20397;-71
2022/01/29 06:20:03;;;;;;;9.18;3.22;;;;;;;;;;5077430;28;20485;-71
2022/01/29 06:22:29;;;;;;;9.95;4.15;;;;;;;;;;5077760;28;20020;-70
2022/01/29 06:24:54;;;;;;;10.10;4.15;;;;;;;;;;5077240;28;20112;-71
2022/01/29 06:27:19;;;;;;;9.55;3.67;;;;;;;;;;5076477;28;20419;-72
2022/01/29 06:29:45;;;;;;;9.00;3.55;;;;;;;;;;5077697;28;20478;-70
2022/01/29 06:32:10;;;;;;;11.18;4.25;;;;;;;;;;5077035;28;20036;-71
2022/01/29 06:34:35;;;;;;;8.40;4.25;;;;;;;;;;5076681;28;20324;-72
2022/01/29 06:37:01;;;;;;;17.05;7.07;;;;;;;;;;5076553;28;20036;-71
2022/01/29 06:39:26;;;;;;;7.43;2.92;;;;;;;;;;5077392;28;20524;-71
2022/01/29 06:41:51;;;;;;;8.60;3.33;;;;;;;;;;5076322;28;20059;-71
2022/01/29 06:44:17;;;;;;;9.02;3.97;;;;;;;;;;5076389;28;20035;-72
2022/01/29 06:46:42;;;;;;;14.60;5.13;;;;;;;;;;5077549;28;20055;-71
2022/01/29 06:49:07;;;;;;;11.98;4.05;;;;;;;;;;5076526;28;20032;-71
2022/01/29 06:51:33;;;;;;;5.85;2.92;;;;;;;;;;5077194;28;20495;-70
2022/01/29 06:53:58;;;;;;;13.23;5.22;;;;;;;;;;5076509;28;20059;-71
2022/01/29 06:56:23;;;;;;;9.48;3.15;;;;;;;;;;5075282;28;20024;-72
2022/01/29 06:58:49;;;;;;;10.85;4.32;;;;;;;;;;5076533;28;20055;-71
2022/01/29 07:01:16;;;;;;;9.75;3.08;;;;;;;;;;5075936;28;20124;-71
2022/01/29 07:03:41;;;;;;;9.95;4.60;;;;;;;;;;5076669;28;20077;-71
2022/01/29 07:06:06;;;;;;;6.88;3.13;;;;;;;;;;5077716;28;20032;-70
2022/01/29 07:08:37;;;;;;;4.57;1.70;;;;;;;;;;5076086;28;20024;-71
2022/01/29 07:11:02;;;;;;;5.80;2.38;;;;;;;;;;5077248;28;20085;-70
2022/01/29 07:13:27;;;;;;;10.30;4.75;;;;;;;;;;5073828;28;20539;-70
2022/01/29 07:15:53;;;;;;;10.02;3.55;;;;;;;;;;5077853;28;20469;-71
2022/01/29 07:18:18;;;;;;;7.32;3.08;;;;;;;;;;5075738;28;20035;-72
2022/01/29 07:20:46;;;;;;;5.85;2.63;;;;;;;;;;5075699;28;20040;-71
2022/01/29 07:23:11;;;;;;;8.90;3.05;;;;;;;;;;5075434;28;20028;-70
2022/01/29 07:25:36;;;;;;;8.38;3.05;;;;;;;;;;5076907;28;20028;-69
2022/01/29 07:28:02;;;;;;;9.55;3.67;;;;;;;;;;5073106;28;20016;-71
2022/01/29 07:30:27;;;;;;;9.52;3.78;;;;;;;;;;5074627;28;20032;-70
2022/01/29 07:32:52;;;;;;;8.80;3.33;;;;;;;;;;5075159;28;20053;-72
2022/01/29 07:35:17;;;;;;;6.20;2.63;;;;;;;;;;5076259;28;20031;-70
2022/01/29 07:37:43;;;;;;;8.45;3.42;;;;;;;;;;5074429;28;20046;-71
2022/01/29 07:40:09;;;;;;;7.55;2.20;;;;;;;;;;5076839;28;20077;-71
2022/01/29 07:42:35;;;;;;;8.27;3.58;;;;;;;;;;5073756;28;20482;-71
2022/01/29 07:45:00;;;;;;;8.63;3.95;;;;;;;;;;5076422;28;20683;-70
2022/01/29 07:47:25;;;;;;;6.45;2.67;;;;;;;;;;5075896;28;20066;-70
2022/01/29 07:49:51;;;;;;;4.65;1.65;;;;;;;;;;5075305;28;20039;-70
2022/01/29 07:52:16;;;;;;;5.82;2.72;;;;;;;;;;5075835;28;20044;-70
2022/01/29 07:54:41;;;;;;;8.38;3.75;;;;;;;;;;5075563;28;20032;-70
2022/01/29 07:57:07;;;;;;;5.25;2.63;;;;;;;;;;5073995;28;20693;-71
2022/01/29 07:59:32;;;;;;;16.83;3.03;;;;;;;;;;5075973;28;20028;-70
2022/01/29 08:01:57;;;;;;;5.90;3.17;;;;;;;;;;5075699;28;20036;-72
2022/01/29 08:04:24;;;;;;;6.88;3.17;;;;;;;;;;5077210;28;20111;-70
2022/01/29 08:06:50;;;;;;;30.98;3.25;;;;;;;;;;5076146;28;20055;-72
2022/01/29 08:09:15;;;;;;;53.20;6.00;;;;;;;;;;5076211;28;20039;-72
2022/01/29 08:11:41;;;;;;;15.10;4.22;;;;;;;;;;5076015;28;20052;-69
2022/01/29 08:14:06;;;;;;;39.50;4.00;;;;;;;;;;5077612;28;20031;-70
2022/01/29 08:16:31;;;;;;;65.45;5.15;;;;;;;;;;5079177;28;20032;-70
2022/01/29 08:18:57;;;;;;;26.05;4.05;;;;;;;;;;5080190;28;20024;-72
2022/01/29 08:21:22;;;;;;;62.10;5.78;;;;;;;;;;5079665;28;20459;-70
2022/01/29 08:23:47;;;;;;;60.35;6.32;;;;;;;;;;5080017;28;20413;-71
2022/01/29 08:26:13;;;;;;;15.68;4.28;;;;;;;;;;5078636;28;20043;-72
2022/01/29 08:28:39;;;;;;;29.20;5.72;;;;;;;;;;5078623;28;20036;-70
2022/01/29 08:31:05;;;;;;;12.90;5.47;;;;;;;;;;5077946;28;20086;-72
2022/01/29 08:33:30;;;;;;;16.50;5.65;;;;;;;;;;5079884;28;20032;-72
2022/01/29 08:35:57;;;;;;;21.70;4.47;;;;;;;;;;5080152;28;20039;-69
2022/01/29 08:38:23;;;;;;;11.30;4.90;;;;;;;;;;5078731;28;20054;-71
2022/01/29 08:40:48;;;;;;;14.55;5.82;;;;;;;;;;5079798;28;20040;-70
2022/01/29 08:43:14;;;;;;;5.72;2.72;;;;;;;;;;5076974;28;20048;-69
2022/01/29 08:45:39;;;;;;;4.88;2.38;;;;;;;;;;5080195;28;20072;-70
2022/01/29 08:48:05;;;;;;;6.47;3.05;;;;;;;;;;5077908;28;20036;-71
2022/01/29 08:50:30;;;;;;;12.20;5.93;;;;;;;;;;5060788;28;20134;-70
2022/01/29 08:52:55;;;;;;;8.43;3.95;;;;;;;;;;5078873;28;20032;-70
2022/01/29 08:55:21;;;;;;;5.00;2.60;;;;;;;;;;5077983;28;20028;-71
2022/01/29 08:57:46;;;;;;;5.93;3.35;;;;;;;;;;5076367;28;20036;-71
2022/01/29 09:00:12;;;;;;;14.07;5.03;;;;;;;;;;5078278;28;20044;-69
2022/01/29 09:02:38;;;;;;;4.35;1.98;;;;;;;;;;5060594;28;20209;-72
2022/01/29 09:05:04;;;;;;;8.90;4.45;;;;;;;;;;5077434;28;20111;-71
2022/01/29 09:07:29;;;;;;;11.73;5.13;;;;;;;;;;5078339;28;20024;-70
2022/01/29 09:09:55;;;;;;;5.03;2.33;;;;;;;;;;5077407;28;20031;-71
2022/01/29 09:12:21;;;;;;;7.50;3.53;;;;;;;;;;5077157;28;20312;-70
2022/01/29 09:14:46;;;;;;;7.82;4.05;;;;;;;;;;5079631;28;20067;-71
2022/01/29 09:17:11;;;;;;;8.98;4.22;;;;;;;;;;5077968;28;20532;-69
2022/01/29 09:19:37;;;;;;;10.25;4.32;;;;;;;;;;5078269;28;20036;-72
2022/01/29 09:22:02;;;;;;;10.48;4.05;;;;;;;;;;5078510;28;20020;-70
2022/01/29 09:24:28;;;;;;;6.43;3.25;;;;;;;;;;5078820;28;20429;-70
2022/01/29 09:26:53;;;;;;;10.27;3.90;;;;;;;;;;5070091;28;20539;-72
2022/01/29 09:29:18;;;;;;;11.60;2.85;;;;;;;;;;5074113;28;20437;-71
2022/01/29 09:31:44;;;;;;;6.03;2.88;;;;;;;;;;5074994;28;20036;-72
2022/01/29 09:34:09;;;;;;;7.00;3.53;;;;;;;;;;5075468;28;20370;-71
2022/01/29 09:36:34;;;;;;;13.63;3.55;;;;;;;;;;5072000;28;20462;-71
2022/01/29 09:39:00;;;;;;;9.10;4.15;;;;;;;;;;5073166;28;20024;-72
2022/01/29 09:41:26;;;;;;;4.55;2.20;;;;;;;;;;5070387;28;20043;-72
2022/01/29 09:43:52;;;;;;;7.25;2.95;;;;;;;;;;5073991;28;20027;-71
2022/01/29 09:46:18;;;;;;;11.50;4.75;;;;;;;;;;5074586;28;20383;-72
2022/01/29 09:48:46;;;;;;;4.50;2.22;;;;;;;;;;5073647;28;20040;-72
2022/01/29 09:51:15;;;;;;;9.25;3.90;;;;;;;;;;5072745;28;20072;-72
2022/01/29 09:53:42;;;;;;;8.25;3.70;;;;;;;;;;5074458;28;20085;-70
2022/01/29 09:56:08;;;;;;;5.97;2.83;;;;;;;;;;5074255;28;20063;-71
2022/01/29 09:58:33;;;;;;;7.63;3.53;;;;;;;;;;5071582;28;20118;-71
2022/01/29 10:00:59;;;;;;;3.25;1.73;;;;;;;;;;5071170;28;20105;-70
2022/01/29 10:03:24;;;;;;;8.00;3.63;;;;;;;;;;5073848;28;20062;-71
2022/01/29 10:05:51;;;;;;;6.28;2.90;;;;;;;;;;5073662;28;20032;-71
2022/01/29 10:08:17;;;;;;;8.02;3.05;;;;;;;;;;5073170;28;20038;-72
2022/01/29 10:10:50;;;;;;;9.40;4.45;;;;;;;;;;5074418;28;20087;-72
2022/01/29 10:13:31;;;;;;;6.32;3.30;;;;;;;;;;5071821;28;20345;-71
2022/01/29 10:16:23;;;;;;;3.03;1.50;;;;;;;;;;5073707;28;20036;-71
2022/01/29 10:19:05;;;;;;;5.05;2.08;;;;;;;;;;5068327;28;20043;-72
2022/01/29 10:21:32;;;;;;;6.93;2.83;;;;;;;;;;5073932;28;20024;-72
2022/01/29 10:24:03;;;;;;;5.78;2.97;;;;;;;;;;5067737;28;20089;-72
2022/01/29 10:26:29;;;;;;;3.78;2.10;;;;;;;;;;5070519;28;20036;-72
2022/01/29 10:28:56;;;;;;;5.38;2.05;;;;;;;;;;5069445;28;20031;-71
2022/01/29 10:31:21;;;;;;;4.72;2.10;;;;;;;;;;5068172;28;20153;-71
2022/01/29 10:33:47;;;;;;;4.05;1.48;;;;;;;;;;5072331;28;20110;-72
2022/01/29 10:36:16;;;;;;;5.05;2.20;;;;;;;;;;5069392;28;20379;-71
2022/01/29 10:38:41;;;;;;;5.82;2.78;;;;;;;;;;5068320;28;20515;-70
2022/01/29 10:41:20;;;;;;;6.03;1.98;;;;;;;;;;5061899;28;20042;-71
2022/01/29 10:43:56;;;;;;;2.67;1.55;;;;;;;;;;5072772;28;20701;-70
2022/01/29 10:46:25;;;;;;;6.15;2.35;;;;;;;;;;5070442;28;20220;-71
2022/01/29 10:48:50;;;;;;;4.47;2.03;;;;;;;;;;5071363;28;20040;-71
2022/01/29 10:51:16;;;;;;;2.90;1.58;;;;;;;;;;5064268;28;20048;-72
2022/01/29 10:53:41;;;;;;;5.55;2.10;;;;;;;;;;5070417;28;20510;-69
2022/01/29 10:56:07;;;;;;;6.45;3.65;;;;;;;;;;5075738;28;20498;-71
2022/01/29 10:58:42;;;;;;;6.47;2.28;;;;;;;;;;5076282;28;20146;-69
2022/01/29 11:01:12;;;;;;;5.43;2.72;;;;;;;;;;5075680;28;20046;-68
2022/01/29 11:03:37;;;;;;;3.40;2.00;;;;;;;;;;5076808;28;20469;-70
2022/01/29 11:06:02;;;;;;;4.22;2.00;;;;;;;;;;5078512;28;20028;-69
2022/01/29 11:08:28;;;;;;;3.53;2.10;;;;;;;;;;5076747;28;20024;-69
2022/01/29 11:10:54;;;;;;;3.92;1.77;;;;;;;;;;5077769;28;20467;-70
2022/01/29 11:13:19;;;;;;;2.80;1.48;;;;;;;;;;5076203;28;20028;-69
2022/01/29 11:15:44;;;;;;;3.80;2.00;;;;;;;;;;5077654;28;20475;-69
2022/01/29 11:18:10;;;;;;;7.88;1.88;;;;;;;;;;5077573;28;20028;-71
2022/01/29 11:20:35;;;;;;;5.47;2.47;;;;;;;;;;5078263;28;20036;-70
2022/01/29 11:23:01;;;;;;;3.47;1.85;;;;;;;;;;5077493;28;20074;-69
2022/01/29 11:25:27;;;;;;;3.75;2.28;;;;;;;;;;5077106;28;20032;-69
2022/01/29 11:28:22;;;;;;;4.85;2.30;;;;;;;;;;5074940;28;20016;-68
2022/01/29 11:31:07;;;;;;;6.03;2.55;;;;;;;;;;5054640;28;20044;-71
2022/01/29 11:33:32;;;;;;;4.53;2.35;;;;;;;;;;5076880;28;20040;-69
2022/01/29 11:35:58;;;;;;;3.35;1.70;;;;;;;;;;5075901;28;20028;-71
2022/01/29 11:38:27;;;;;;;7.63;2.25;;;;;;;;;;5077343;28;20031;-70
2022/01/29 11:41:00;;;;;;;6.57;3.63;;;;;;;;;;5076383;28;20655;-71
2022/01/29 11:43:26;;;;;;;5.30;2.80;;;;;;;;;;5059151;28;20048;-69
2022/01/29 11:46:03;;;;;;;4.53;2.20;;;;;;;;;;5056968;28;20514;-68
2022/01/29 11:48:38;;;;;;;3.80;1.83;;;;;;;;;;5058066;28;20071;-68
2022/01/29 11:51:08;;;;;;;5.20;2.50;;;;;;;;;;5060137;28;20176;-71
2022/01/29 11:53:45;;;;;;;4.43;1.95;;;;;;;;;;5059757;28;20032;-70
2022/01/29 11:56:27;;;;;;;3.30;1.73;;;;;;;;;;5059683;28;20394;-69
2022/01/29 11:59:11;;;;;;;6.47;2.85;;;;;;;;;;5060796;28;20033;-70
2022/01/29 12:01:36;;;;;;;3.05;1.70;;;;;;;;;;5060355;28;20102;-70
2022/01/29 12:04:02;;;;;;;4.03;1.83;;;;;;;;;;5060418;28;20754;-71
2022/01/29 12:06:31;;;;;;;5.82;2.28;;;;;;;;;;5060861;28;20028;-69
2022/01/29 12:09:06;;;;;;;5.22;2.20;;;;;;;;;;5059816;28;20448;-71
2022/01/29 12:11:32;;;;;;;3.60;1.95;;;;;;;;;;5059903;28;20044;-69
2022/01/29 12:14:12;;;;;;;5.50;2.22;;;;;;;;;;5060017;28;20024;-70
2022/01/29 12:16:55;;;;;;;6.18;3.03;;;;;;;;;;5059781;28;20044;-71
2022/01/29 12:19:40;;;;;;;6.10;2.90;;;;;;;;;;5061067;28;20036;-69
2022/01/29 12:22:10;;;;;;;5.93;2.75;;;;;;;;;;5059375;28;20075;-71
2022/01/29 12:24:35;;;;;;;5.70;2.47;;;;;;;;;;5060189;28;20040;-68
2022/01/29 12:27:01;;;;;;;7.60;3.70;;;;;;;;;;5054221;28;20490;-70
2022/01/29 12:29:27;;;;;;;5.00;2.60;;;;;;;;;;5058896;28;20329;-69
2022/01/29 12:31:52;;;;;;;5.88;2.40;;;;;;;;;;5057096;28;20420;-70
2022/01/29 12:34:20;;;;;;;5.53;2.60;;;;;;;;;;5058703;28;20030;-69
2022/01/29 12:36:45;;;;;;;3.28;1.80;;;;;;;;;;5060441;28;20430;-69
2022/01/29 12:39:20;;;;;;;5.45;2.58;;;;;;;;;;5056642;28;20040;-71
2022/01/29 12:41:46;;;;;;;5.57;3.00;;;;;;;;;;5057056;28;20052;-69
2022/01/29 12:44:18;;;;;;;4.53;2.47;;;;;;;;;;5077288;28;20094;-71
2022/01/29 12:46:45;;;;;;;2.15;1.10;;;;;;;;;;5077513;28;20063;-69
2022/01/29 12:49:11;;;;;;;4.25;1.65;;;;;;;;;;5077802;28;20678;-71
2022/01/29 12:51:49;;;;;;;2.35;1.20;;;;;;;;;;5077496;28;20108;-71
2022/01/29 12:54:14;;;;;;;2.00;1.02;;;;;;;;;;5076829;28;20040;-69
2022/01/29 12:56:39;;;;;;;2.58;1.17;;;;;;;;;;5076323;28;20024;-70
2022/01/29 12:59:06;;;;;;;2.10;0.95;;;;;;;;;;5078881;28;20059;-71
2022/01/29 13:01:32;;;;;;;3.00;1.13;;;;;;;;;;5076232;28;20032;-71
2022/01/29 13:04:05;;;;;;;1.95;0.90;;;;;;;;;;5077220;28;20047;-68
2022/01/29 13:06:31;;;;;;;1.25;0.65;;;;;;;;;;5078202;28;20063;-71
2022/01/29 13:09:12;;;;;;;1.80;0.85;;;;;;;;;;5078115;28;20546;-69
2022/01/29 13:11:37;;;;;;;;;;;;;;;;;;5076747;28;20032;-71
2022/01/29 13:14:13;;;;;;;2.90;1.05;;;;;;;;;;5078131;28;19908;-70
2022/01/29 13:16:39;;;;;;;2.75;1.50;;;;;;;;;;5077401;28;20115;-71
2022/01/29 13:19:05;;;;;;;2.30;1.00;;;;;;;;;;5077231;28;20024;-71
2022/01/29 13:21:31;;;;;;;2.35;0.90;;;;;;;;;;5077831;28;20320;-70
2022/01/29 13:23:57;;;;;;;3.28;1.30;;;;;;;;;;5078722;28;20031;-68
2022/01/29 13:26:28;;;;;;;1.90;1.05;;;;;;;;;;5077566;28;20051;-71
2022/01/29 13:28:59;;;;;;;3.22;1.15;;;;;;;;;;5076809;28;20477;-70
2022/01/29 13:31:25;;;;;;;1.45;0.70;;;;;;;;;;5075400;28;20055;-70
2022/01/29 13:33:50;;;;;;;2.10;1.08;;;;;;;;;;5078379;28;20031;-71
2022/01/29 13:36:29;;;;;;;2.03;1.05;;;;;;;;;;5077578;28;20043;-71
2022/01/29 13:39:09;;;;;;;3.33;1.25;;;;;;;;;;5077628;28;20228;-68
2022/01/29 13:41:35;;;;;;;5.72;2.83;;;;;;;;;;5058259;28;20032;-71
2022/01/29 13:44:10;;;;;;;17.38;6.25;;;;;;;;;;5078056;28;20058;-69
2022/01/29 13:46:35;;;;;;;6.25;2.40;;;;;;;;;;5077390;28;20035;-69
2022/01/29 13:49:02;;;;;;;28.08;8.45;;;;;;;;;;5077450;28;20035;-70
2022/01/29 13:51:28;;;;;;;8.00;4.05;;;;;;;;;;5076032;28;20398;-70
2022/01/29 13:53:55;;;;;;;3.20;1.77;;;;;;;;;;5074668;28;20028;-70
2022/01/29 13:56:21;;;;;;;5.13;2.50;;;;;;;;;;5075341;28;20028;-71
2022/01/29 13:58:53;;;;;;;6.60;3.08;;;;;;;;;;5075470;28;20456;-70
2022/01/29 14:01:33;;;;;;;6.68;3.40;;;;;;;;;;5075922;28;20043;-69
2022/01/29 14:03:59;;;;;;;5.30;3.03;;;;;;;;;;5076394;28;20257;-69
2022/01/29 14:06:34;;;;;;;5.32;2.58;;;;;;;;;;5076509;28;20375;-69
2022/01/29 14:09:11;;;;;;;6.15;3.53;;;;;;;;;;5075767;28;20433;-68
2022/01/29 14:11:55;;;;;;;9.63;4.68;;;;;;;;;;5074120;28;20040;-71
2022/01/29 14:14:21;;;;;;;2.10;0.90;;;;;;;;;;5076963;28;20058;-70
2022/01/29 14:16:46;;;;;;;8.50;3.97;;;;;;;;;;5075792;28;20343;-69
2022/01/29 14:19:16;;;;;;;6.00;2.55;;;;;;;;;;5075481;28;20371;-68
2022/01/29 14:21:42;;;;;;;4.18;1.48;;;;;;;;;;5075216;28;20067;-70
2022/01/29 14:24:07;;;;;;;2.20;1.00;;;;;;;;;;5076481;28;20024;-71
2022/01/29 14:26:33;;;;;;;3.30;1.10;;;;;;;;;;5075027;28;20038;-70
2022/01/29 14:28:58;;;;;;;2.67;1.30;;;;;;;;;;5076015;28;20443;-69
2022/01/29 14:31:24;;;;;;;6.97;1.65;;;;;;;;;;5065008;28;20229;-70
2022/01/29 14:33:49;;;;;;;4.97;1.88;;;;;;;;;;5070645;28;20020;-71
2022/01/29 14:36:14;;;;;;;3.15;1.42;;;;;;;;;;5069525;28;20030;-71
2022/01/29 14:38:39;;;;;;;3.92;1.70;;;;;;;;;;5072817;28;20024;-69
2022/01/29 14:41:07;;;;;;;2.13;0.85;;;;;;;;;;5072576;28;20574;-69
2022/01/29 14:43:33;;;;;;;2.20;1.05;;;;;;;;;;5072353;28;20048;-71
2022/01/29 14:46:00;;;;;;;1.95;0.98;;;;;;;;;;5071020;28;20027;-70